createdAt,value
2022-12-20T00:01:50.021Z,-2.28
2022-12-20T00:07:11.020Z,-2.24
2022-12-20T00:12:31.675Z,-1.91
2022-12-20T00:17:52.499Z,-1.63
2022-12-20T00:23:13.121Z,-1.46
2022-12-20T00:28:35.902Z,-1.48
2022-12-20T00:33:58.982Z,-1.75
2022-12-20T00:39:20.087Z,-1.92
2022-12-20T00:44:40.874Z,-2.03
2022-12-20T00:50:01.869Z,-2.07
2022-12-20T00:55:22.349Z,-2.09
2022-12-20T01:00:43.104Z,-2.28
2022-12-20T01:06:03.826Z,-2.46
2022-12-20T01:11:28.114Z,-2.48
2022-12-20T01:16:48.885Z,-2.48
2022-12-20T01:22:09.472Z,-2.55
2022-12-20T01:27:30.279Z,-2.51
2022-12-20T01:32:50.919Z,-2.45
2022-12-20T01:38:11.590Z,-2.64
2022-12-20T01:43:57.757Z,-2.81
2022-12-20T01:49:24.557Z,-2.88
2022-12-20T01:54:53.184Z,-2.98
2022-12-20T02:00:14.610Z,-3.09
2022-12-20T02:05:39.468Z,-3.07
2022-12-20T02:11:29.525Z,-3.03
2022-12-20T02:17:08.253Z,-3.01
2022-12-20T02:22:40.954Z,-2.96
2022-12-20T02:28:14.758Z,-2.95
2022-12-20T02:33:35.294Z,-2.89
2022-12-20T02:38:56.119Z,-2.86
2022-12-20T02:44:39.277Z,-2.93
2022-12-20T02:50:01.063Z,-3.08
2022-12-20T02:55:37.897Z,-3.05
2022-12-20T03:01:04.572Z,-2.91
2022-12-20T03:06:26.291Z,-2.95
2022-12-20T03:11:47.155Z,-2.96
2022-12-20T03:17:08.808Z,-2.98
2022-12-20T03:22:33.658Z,-3.02
2022-12-20T03:27:55.389Z,-2.94
2022-12-20T03:33:18.263Z,-2.73
2022-12-20T03:38:41.352Z,-2.64
2022-12-20T03:44:02.594Z,-2.36
2022-12-20T03:49:25.394Z,-2.37
2022-12-20T03:54:46.059Z,-2.23
2022-12-20T04:00:12.702Z,-2.00
2022-12-20T04:05:40.762Z,-1.84
2022-12-20T04:11:16.537Z,-1.96
2022-12-20T04:16:45.595Z,-2.24
2022-12-20T04:22:07.820Z,-2.41
2022-12-20T04:27:48.161Z,-2.50
2022-12-20T04:33:09.164Z,-2.55
2022-12-20T04:38:30.279Z,-2.66
2022-12-20T04:43:53.607Z,-2.62
2022-12-20T04:49:16.572Z,-2.53
2022-12-20T04:54:38.716Z,-2.51
2022-12-20T05:00:08.944Z,-2.47
2022-12-20T05:05:34.656Z,-2.26
2022-12-20T05:10:55.487Z,-2.27
2022-12-20T05:16:16.593Z,-2.39
2022-12-20T05:21:56.350Z,-2.45
2022-12-20T05:27:16.992Z,-2.36
2022-12-20T05:32:38.338Z,-2.34
2022-12-20T05:37:59.176Z,-2.16
2022-12-20T05:43:20.949Z,-2.19
2022-12-20T05:48:42.258Z,-2.25
2022-12-20T05:54:04.356Z,-2.37
2022-12-20T05:59:49.276Z,-2.65
2022-12-20T06:05:12.987Z,-2.65
2022-12-20T06:10:35.076Z,-2.27
2022-12-20T06:15:56.473Z,-2.23
2022-12-20T06:21:18.006Z,-2.21
2022-12-20T06:26:39.325Z,-2.23
2022-12-20T06:32:02.243Z,-2.08
2022-12-20T06:37:23.052Z,-2.30
2022-12-20T06:42:44.633Z,-2.50
2022-12-20T06:48:06.495Z,-2.64
2022-12-20T06:53:29.139Z,-2.71
2022-12-20T06:58:49.811Z,-2.74
2022-12-20T07:04:10.884Z,-2.72
2022-12-20T07:09:31.856Z,-2.72
2022-12-20T07:14:52.783Z,-2.67
2022-12-20T07:20:14.707Z,-2.54
2022-12-20T07:25:35.637Z,-2.43
2022-12-20T07:31:01.631Z,-2.51
2022-12-20T07:36:22.519Z,-2.55
2022-12-20T07:41:43.230Z,-2.56
2022-12-20T07:47:10.043Z,-2.42
2022-12-20T07:52:34.439Z,-2.24
2022-12-20T07:58:01.101Z,-2.10
2022-12-20T08:03:31.872Z,-2.09
2022-12-20T08:08:57.744Z,-1.97
2022-12-20T08:14:19.607Z,-1.59
2022-12-20T08:19:40.350Z,-1.39
2022-12-20T08:25:01.575Z,-1.32
2022-12-20T08:30:22.286Z,-1.51
2022-12-20T08:35:43.023Z,-1.66
2022-12-20T08:41:14.847Z,-1.69
2022-12-20T08:46:37.193Z,-1.62
2022-12-20T08:51:57.840Z,-1.59
2022-12-20T08:57:18.572Z,-1.58
2022-12-20T09:02:41.308Z,-1.49
2022-12-20T09:08:02.341Z,-1.36
2022-12-20T09:13:23.063Z,-1.45
2022-12-20T09:18:44.362Z,-1.33
2022-12-20T09:24:06.294Z,-1.20
2022-12-20T09:29:33.580Z,-1.06
2022-12-20T09:34:56.133Z,-1.02
2022-12-20T09:40:21.052Z,-1.17
2022-12-20T09:45:42.694Z,-1.29
2022-12-20T09:51:12.537Z,-1.38
2022-12-20T09:56:37.882Z,-1.38
2022-12-20T10:02:13.277Z,-1.25
2022-12-20T10:07:48.596Z,-1.14
2022-12-20T10:13:35.531Z,-1.08
2022-12-20T10:19:12.947Z,-0.97
2022-12-20T10:24:35.608Z,-0.82
2022-12-20T10:29:57.115Z,-0.78
2022-12-20T10:35:25.451Z,-0.69
2022-12-20T10:46:42.984Z,-0.77
2022-12-20T10:52:14.185Z,-0.73
2022-12-20T10:57:35.189Z,-0.72
2022-12-20T11:03:13.047Z,-0.72
2022-12-20T11:08:46.773Z,-0.78
2022-12-20T11:14:16.044Z,-0.78
2022-12-20T11:20:05.107Z,-0.70
2022-12-20T11:25:39.511Z,-0.57
2022-12-20T11:31:09.239Z,-0.40
2022-12-20T11:36:55.122Z,-0.47
2022-12-20T11:43:00.756Z,-0.40
2022-12-20T11:48:27.267Z,-0.40
2022-12-20T11:53:57.753Z,-0.50
2022-12-20T11:59:37.161Z,-0.50
2022-12-20T12:05:18.279Z,-0.37
2022-12-20T12:10:45.103Z,-0.12
2022-12-20T12:16:23.360Z,-0.25
2022-12-20T12:21:52.561Z,-0.37
2022-12-20T12:27:22.684Z,-0.50
2022-12-20T12:33:00.514Z,-0.59
2022-12-20T12:38:39.278Z,-0.65
2022-12-20T12:44:25.684Z,-0.66
2022-12-20T12:49:50.257Z,-0.64
2022-12-20T12:55:39.241Z,-0.59
2022-12-20T13:01:03.312Z,-0.66
2022-12-20T13:06:24.054Z,-0.71
2022-12-20T13:11:47.494Z,-0.71
2022-12-20T13:17:13.210Z,-0.74
2022-12-20T13:22:36.257Z,-0.79
2022-12-20T13:28:16.958Z,-0.76
2022-12-20T13:33:43.549Z,-0.73
2022-12-20T13:39:24.383Z,-0.70
2022-12-20T13:44:47.549Z,-0.65
2022-12-20T13:50:41.800Z,-0.62
2022-12-20T13:56:27.552Z,-0.60
2022-12-20T14:02:00.303Z,-0.61
2022-12-20T14:07:21.358Z,-0.66
2022-12-20T14:12:46.229Z,-0.68
2022-12-20T14:18:18.192Z,-0.64
2022-12-20T14:23:43.594Z,-0.61
2022-12-20T14:29:11.600Z,-0.64
2022-12-20T14:34:41.349Z,-0.67
2022-12-20T14:40:16.607Z,-0.67
2022-12-20T14:45:37.275Z,-0.67
2022-12-20T14:50:58.079Z,-0.68
2022-12-20T14:56:27.836Z,-0.73
2022-12-20T15:01:53.190Z,-0.83
2022-12-20T15:07:31.557Z,-0.93
2022-12-20T15:12:52.271Z,-0.98
2022-12-20T15:18:14.966Z,-0.97
2022-12-20T15:23:36.232Z,-1.01
2022-12-20T15:28:57.670Z,-0.94
2022-12-20T15:34:26.932Z,-0.89
2022-12-20T15:39:47.983Z,-0.90
2022-12-20T15:45:16.098Z,-0.98
2022-12-20T15:50:37.246Z,-1.04
2022-12-20T15:55:58.340Z,-1.13
2022-12-20T16:01:31.183Z,-1.14
2022-12-20T16:06:57.068Z,-1.14
2022-12-20T16:12:29.584Z,-1.12
2022-12-20T16:17:50.678Z,-1.13
2022-12-20T16:23:24.797Z,-1.15
2022-12-20T16:28:47.976Z,-0.73
2022-12-20T16:34:17.104Z,-0.72
2022-12-20T16:39:38.090Z,-0.84
2022-12-20T16:44:58.756Z,-0.97
2022-12-20T16:50:20.511Z,-1.03
2022-12-20T16:55:41.311Z,-1.09
2022-12-20T17:01:02.253Z,-1.15
2022-12-20T17:06:22.897Z,-1.18
2022-12-20T17:11:43.805Z,-1.17
2022-12-20T17:17:05.011Z,-1.17
2022-12-20T17:28:05.484Z,-1.21
2022-12-20T17:33:26.298Z,-1.20
2022-12-20T17:38:49.636Z,-1.25
2022-12-20T17:44:23.817Z,-1.32
2022-12-20T17:49:44.913Z,-1.34
2022-12-20T17:55:06.333Z,-1.39
2022-12-20T18:00:36.603Z,-1.39
2022-12-20T18:06:07.547Z,-1.39
2022-12-20T18:11:29.233Z,-1.35
2022-12-20T18:16:50.153Z,-1.31
2022-12-20T18:22:10.879Z,-1.32
2022-12-20T18:27:31.759Z,-1.05
2022-12-20T18:32:52.515Z,-0.44
2022-12-20T18:38:13.396Z,-0.28
2022-12-20T18:43:35.327Z,-0.25
2022-12-20T18:48:58.507Z,-0.15
2022-12-20T18:54:19.256Z,-0.19
2022-12-20T18:59:39.874Z,-0.37
2022-12-20T19:05:00.855Z,-0.36
2022-12-20T19:10:21.655Z,-0.58
2022-12-20T19:15:45.121Z,-0.81
2022-12-20T19:21:17.113Z,-1.00
2022-12-20T19:26:39.160Z,-1.16
2022-12-20T19:32:00.305Z,-1.23
2022-12-20T19:37:21.005Z,-1.22
2022-12-20T19:42:44.113Z,-1.14
2022-12-20T19:48:05.413Z,-0.90
2022-12-20T19:53:26.267Z,-0.81
2022-12-20T19:58:47.941Z,-0.79
2022-12-20T20:04:10.171Z,-0.65
2022-12-20T20:09:31.074Z,-0.63
2022-12-20T20:14:53.362Z,-0.60
2022-12-20T20:20:14.498Z,-0.92
2022-12-20T20:25:35.546Z,-1.09
2022-12-20T20:30:56.775Z,-1.13
2022-12-20T20:36:20.535Z,-1.18
2022-12-20T20:41:42.865Z,-1.24
2022-12-20T20:47:03.596Z,-1.19
2022-12-20T20:52:24.333Z,-1.10
2022-12-20T20:57:45.121Z,-0.90
2022-12-20T21:03:05.939Z,-0.87
2022-12-20T21:08:27.167Z,-0.96
2022-12-20T21:13:47.625Z,-0.73
2022-12-20T21:19:09.568Z,-0.49
2022-12-20T21:24:30.981Z,-0.30
2022-12-20T21:29:52.643Z,-0.11
2022-12-20T21:35:13.688Z,-0.35
2022-12-20T21:40:35.229Z,-0.60
2022-12-20T21:45:56.191Z,-0.90
2022-12-20T21:51:21.287Z,-0.88
2022-12-20T21:56:42.276Z,-0.78
2022-12-20T22:02:04.203Z,-0.72
2022-12-20T22:07:25.287Z,-0.63
2022-12-20T22:12:46.022Z,-0.60
2022-12-20T22:18:08.336Z,-0.64
2022-12-20T22:23:29.173Z,-0.65
2022-12-20T22:28:58.919Z,-0.62
2022-12-20T22:34:20.364Z,-1.01
2022-12-20T22:39:41.276Z,-0.98
2022-12-20T22:45:02.476Z,-1.31
2022-12-20T22:50:23.367Z,-1.55
2022-12-20T22:55:44.207Z,-1.64
2022-12-20T23:01:08.313Z,-1.62
2022-12-20T23:06:29.386Z,-1.46
2022-12-20T23:12:08.952Z,-1.19
2022-12-20T23:17:29.530Z,-1.05
2022-12-20T23:22:50.952Z,-1.20
2022-12-20T23:28:11.815Z,-1.13
2022-12-20T23:33:32.817Z,-0.96
2022-12-20T23:38:53.481Z,-0.84
2022-12-20T23:44:14.267Z,-0.71
2022-12-20T23:49:34.950Z,-0.71
2022-12-20T23:54:55.687Z,-0.73
